Time;durP1;ratioP1;P1;durP2;ratioP2;P2;SDS_P1;SDS_P2;PMS_P1;PMS_P2;Temp;Humidity;BMP_temperature;BMP_pressure;BME280_temperature;BME280_humidity;BME280_pressure;Samples;Min_cycle;Max_cycle;Signal;HPM_P1;HPM_P2
2023/05/18 00:01:02;;;;;;;8.03;4.73;;;6.00;99.90;;;;;;5051487;28;20207;-40
2023/05/18 00:03:32;;;;;;;8.07;4.40;;;6.10;99.90;;;;;;5068870;28;20203;-41
2023/05/18 00:06:03;;;;;;;6.13;4.40;;;6.00;99.90;;;;;;5044510;28;20216;-41
2023/05/18 00:08:32;;;;;;;9.17;4.67;;;6.00;99.90;;;;;;5047705;28;20232;-39
2023/05/18 00:10:58;;;;;;;6.53;4.73;;;6.00;99.90;;;;;;5052544;28;20259;-40
2023/05/18 00:13:24;;;;;;;7.70;4.87;;;5.90;99.90;;;;;;5069760;28;20195;-41
2023/05/18 00:15:50;;;;;;;7.03;5.07;;;5.90;99.90;;;;;;5072972;28;20254;-41
2023/05/18 00:18:16;;;;;;;9.77;5.27;;;5.80;99.90;;;;;;5073858;28;20170;-41
2023/05/18 00:20:42;;;;;;;10.87;5.80;;;5.80;99.90;;;;;;5055041;28;20185;-41
2023/05/18 00:23:09;;;;;;;8.53;5.53;;;5.70;99.90;;;;;;5054598;28;20212;-41
2023/05/18 00:25:35;;;;;;;9.73;5.27;;;5.60;99.90;;;;;;5055053;28;20209;-40
2023/05/18 00:28:01;;;;;;;7.23;5.27;;;5.60;99.90;;;;;;5038647;28;20204;-39
2023/05/18 00:30:26;;;;;;;7.57;5.43;;;5.50;99.90;;;;;;5055288;28;20182;-40
2023/05/18 00:32:55;;;;;;;6.47;4.70;;;5.50;99.90;;;;;;5054876;28;20194;-40
2023/05/18 00:35:21;;;;;;;6.90;5.03;;;5.50;99.90;;;;;;5054859;28;20203;-41
2023/05/18 00:37:47;;;;;;;8.03;4.97;;;5.60;99.90;;;;;;5054751;28;20196;-41
2023/05/18 00:40:13;;;;;;;7.77;5.20;;;5.60;99.90;;;;;;5054300;28;20233;-41
2023/05/18 00:42:38;;;;;;;8.87;5.50;;;5.70;99.90;;;;;;5055206;28;20178;-40
2023/05/18 00:45:05;;;;;;;8.57;5.00;;;5.70;99.90;;;;;;5054568;28;20207;-40
2023/05/18 00:47:31;;;;;;;7.30;5.30;;;5.70;99.90;;;;;;5055331;28;20172;-40
2023/05/18 00:49:57;;;;;;;7.80;4.93;;;5.70;99.90;;;;;;5055048;28;20198;-41
2023/05/18 00:52:23;;;;;;;10.40;6.23;;;5.60;99.90;;;;;;5054819;28;20195;-40
2023/05/18 00:54:50;;;;;;;8.37;5.17;;;5.60;99.90;;;;;;5053901;28;20205;-41
2023/05/18 00:57:17;;;;;;;7.60;5.03;;;5.60;99.90;;;;;;5054784;28;20667;-40
2023/05/18 00:59:45;;;;;;;8.90;5.37;;;5.50;99.90;;;;;;5054398;28;20183;-40
2023/05/18 01:02:13;;;;;;;9.83;5.30;;;5.40;99.90;;;;;;5054778;28;20251;-41
2023/05/18 01:04:40;;;;;;;9.43;5.47;;;5.30;99.90;;;;;;5053224;28;20221;-39
2023/05/18 01:07:06;;;;;;;9.47;5.20;;;5.20;99.90;;;;;;5046221;28;20196;-40
2023/05/18 01:09:33;;;;;;;6.70;5.30;;;5.30;99.90;;;;;;5054192;28;20187;-40
2023/05/18 01:12:31;;;;;;;8.27;5.30;;;5.30;99.90;;;;;;5054355;28;20177;-41
2023/05/18 01:15:17;;;;;;;8.80;5.00;;;5.30;99.90;;;;;;5017807;28;20202;-41
2023/05/18 01:17:43;;;;;;;6.90;4.87;;;5.30;99.90;;;;;;5019190;28;20228;-41
2023/05/18 01:20:32;;;;;;;7.57;5.13;;;5.40;99.90;;;;;;5053810;28;20273;-41
2023/05/18 01:23:28;;;;;;;6.47;4.90;;;5.30;99.90;;;;;;5054215;28;20202;-40
2023/05/18 01:25:54;;;;;;;8.07;5.00;;;5.30;99.90;;;;;;5054228;28;20252;-41
2023/05/18 01:28:27;;;;;;;7.27;4.90;;;5.30;99.90;;;;;;5053942;28;20190;-41
2023/05/18 01:30:54;;;;;;;8.53;4.87;;;5.20;99.90;;;;;;5037802;28;20185;-41
2023/05/18 01:33:20;;;;;;;7.53;4.30;;;5.20;99.90;;;;;;5054058;28;20226;-41
2023/05/18 01:35:48;;;;;;;8.33;5.30;;;5.20;99.90;;;;;;5071070;28;20218;-41
2023/05/18 01:38:19;;;;;;;7.63;5.53;;;5.20;99.90;;;;;;5024281;28;20178;-41
2023/05/18 01:41:04;;;;;;;6.17;4.97;;;5.10;99.90;;;;;;5039222;28;20175;-41
2023/05/18 01:43:36;;;;;;;5.63;4.93;;;5.10;99.90;;;;;;5052900;28;20210;-41
2023/05/18 01:46:35;;;;;;;6.07;4.53;;;5.10;99.90;;;;;;5053426;28;20538;-41
2023/05/18 01:49:11;;;;;;;7.33;5.03;;;5.10;99.90;;;;;;5048356;28;20277;-41
2023/05/18 01:51:43;;;;;;;6.67;4.90;;;5.10;99.90;;;;;;5034762;28;20236;-40
2023/05/18 01:54:11;;;;;;;10.83;5.00;;;5.00;99.90;;;;;;5036821;28;20208;-40
2023/05/18 01:56:39;;;;;;;10.40;5.40;;;5.00;99.90;;;;;;5047189;28;20219;-41
2023/05/18 01:59:05;;;;;;;8.93;4.37;;;5.00;99.90;;;;;;5053622;28;20185;-39
2023/05/18 02:01:31;;;;;;;8.17;5.10;;;5.00;99.90;;;;;;5053290;28;20193;-40
2023/05/18 02:03:57;;;;;;;10.20;5.67;;;5.00;99.90;;;;;;5053096;28;20669;-41
2023/05/18 02:06:23;;;;;;;7.40;4.77;;;5.00;99.90;;;;;;5033091;28;20255;-41
2023/05/18 02:08:50;;;;;;;7.67;5.00;;;5.10;99.90;;;;;;5049641;28;20185;-41
2023/05/18 02:11:16;;;;;;;8.93;5.40;;;5.10;99.90;;;;;;5070834;28;20170;-41
2023/05/18 02:13:42;;;;;;;7.13;4.90;;;5.00;99.90;;;;;;5052856;28;20322;-41
2023/05/18 02:16:07;;;;;;;8.37;4.97;;;5.00;99.90;;;;;;5052790;28;20188;-41
2023/05/18 02:18:35;;;;;;;6.53;4.80;;;4.90;99.90;;;;;;5053413;28;20194;-41
2023/05/18 02:21:00;;;;;;;7.37;4.33;;;4.90;99.90;;;;;;5033065;28;20187;-41
2023/05/18 02:23:26;;;;;;;5.17;4.67;;;4.90;99.90;;;;;;5049681;28;20222;-41
2023/05/18 02:25:55;;;;;;;8.33;5.53;;;4.90;99.90;;;;;;5052944;28;20210;-41
2023/05/18 02:28:22;;;;;;;8.17;5.20;;;4.80;99.90;;;;;;5036442;28;20188;-40
2023/05/18 02:30:48;;;;;;;5.83;4.67;;;4.80;99.90;;;;;;5051874;28;20181;-41
2023/05/18 02:33:14;;;;;;;5.80;4.90;;;4.70;99.90;;;;;;5036497;28;20276;-37
2023/05/18 02:35:40;;;;;;;6.23;4.50;;;4.70;99.90;;;;;;5052351;28;20342;-41
2023/05/18 02:38:06;;;;;;;6.17;4.60;;;4.70;99.90;;;;;;5036406;28;20190;-40
2023/05/18 02:40:32;;;;;;;7.13;4.73;;;4.70;99.90;;;;;;5052338;28;20179;-41
2023/05/18 02:43:00;;;;;;;7.17;4.70;;;4.70;99.90;;;;;;5053036;28;20284;-41
2023/05/18 02:45:26;;;;;;;6.83;5.00;;;4.70;99.90;;;;;;5034773;28;20209;-40
2023/05/18 02:47:53;;;;;;;6.10;4.03;;;4.70;99.90;;;;;;5052400;28;20654;-41
2023/05/18 02:50:20;;;;;;;7.37;4.87;;;4.60;99.90;;;;;;5036020;28;20196;-41
2023/05/18 02:52:48;;;;;;;6.63;5.00;;;4.60;99.90;;;;;;5036128;28;20246;-41
2023/05/18 02:55:16;;;;;;;5.73;4.57;;;4.60;99.90;;;;;;5052081;28;20173;-41
2023/05/18 02:58:02;;;;;;;7.30;4.90;;;4.60;99.90;;;;;;5038390;28;20177;-40
2023/05/18 03:00:58;;;;;;;6.47;4.73;;;4.70;99.90;;;;;;5039802;28;20193;-40
2023/05/18 03:03:26;;;;;;;5.77;4.40;;;4.60;99.90;;;;;;5036410;28;20210;-40
2023/05/18 03:05:52;;;;;;;6.57;4.43;;;4.60;99.90;;;;;;5061243;28;20205;-40
2023/05/18 03:08:21;;;;;;;7.13;4.73;;;4.50;99.90;;;;;;5031751;28;20178;-41
2023/05/18 03:10:48;;;;;;;6.40;4.80;;;4.50;99.90;;;;;;5043871;28;20185;-41
2023/05/18 03:13:15;;;;;;;6.93;4.40;;;4.40;99.90;;;;;;5052236;28;20189;-40
2023/05/18 03:15:41;;;;;;;6.17;4.73;;;4.40;99.90;;;;;;5051847;28;20180;-40
2023/05/18 03:18:07;;;;;;;6.93;4.53;;;4.40;99.90;;;;;;5052306;28;20188;-40
2023/05/18 03:20:34;;;;;;;5.77;4.40;;;4.40;99.90;;;;;;5034904;28;20174;-41
2023/05/18 03:23:00;;;;;;;7.87;4.50;;;4.40;99.90;;;;;;5035748;28;20213;-40
2023/05/18 03:25:26;;;;;;;6.47;4.60;;;4.30;99.90;;;;;;5051009;28;20201;-40
2023/05/18 03:27:52;;;;;;;6.83;4.67;;;4.30;99.90;;;;;;5035363;28;20180;-41
2023/05/18 03:30:18;;;;;;;7.90;4.53;;;4.30;99.90;;;;;;5070123;28;20173;-40
2023/05/18 03:32:47;;;;;;;8.53;5.17;;;4.30;99.90;;;;;;5070502;28;20674;-41
2023/05/18 03:35:14;;;;;;;6.30;4.83;;;4.20;99.90;;;;;;5051882;28;20186;-40
2023/05/18 03:37:41;;;;;;;6.47;4.93;;;4.20;99.90;;;;;;5035835;28;20185;-41
2023/05/18 03:40:12;;;;;;;7.13;5.50;;;4.20;99.90;;;;;;5050288;28;20239;-38
2023/05/18 03:42:40;;;;;;;6.97;5.00;;;4.20;99.90;;;;;;5054369;28;20186;-41
2023/05/18 03:45:07;;;;;;;8.97;5.30;;;4.20;99.90;;;;;;5055752;28;20204;-40
2023/05/18 03:47:33;;;;;;;7.57;5.20;;;4.10;99.90;;;;;;5056296;28;20173;-41
2023/05/18 03:49:59;;;;;;;7.20;4.70;;;4.20;99.90;;;;;;5035444;28;20228;-40
2023/05/18 03:52:28;;;;;;;10.80;5.20;;;4.20;99.90;;;;;;5043818;28;20188;-40
2023/05/18 03:54:55;;;;;;;7.57;5.47;;;4.30;99.90;;;;;;5034932;28;20195;-40
2023/05/18 03:57:21;;;;;;;6.67;5.30;;;4.30;99.90;;;;;;5035706;28;20196;-40
2023/05/18 03:59:47;;;;;;;12.60;6.30;;;4.30;99.90;;;;;;5025603;28;20200;-39
2023/05/18 04:02:15;;;;;;;7.43;5.70;;;4.30;99.90;;;;;;5038555;28;20185;-40
2023/05/18 04:04:44;;;;;;;7.30;5.33;;;4.40;99.90;;;;;;5037930;28;20205;-41
2023/05/18 04:07:11;;;;;;;5.50;4.73;;;4.30;99.90;;;;;;5054756;28;20177;-36
2023/05/18 04:09:38;;;;;;;6.67;5.50;;;4.30;99.90;;;;;;5055270;28;20268;-37
2023/05/18 04:12:04;;;;;;;8.77;5.57;;;4.30;99.90;;;;;;5038518;28;20189;-37
2023/05/18 04:14:34;;;;;;;6.63;4.40;;;4.30;99.90;;;;;;5072593;28;20185;-34
2023/05/18 04:17:05;;;;;;;5.57;4.33;;;4.20;99.90;;;;;;5055863;28;20169;-39
2023/05/18 04:19:35;;;;;;;6.97;4.73;;;4.20;99.90;;;;;;5055612;28;20182;-36
2023/05/18 04:22:04;;;;;;;7.13;4.27;;;4.20;99.90;;;;;;5038313;28;20246;-35
2023/05/18 04:24:31;;;;;;;6.17;4.90;;;4.20;99.90;;;;;;5071313;28;20185;-36
2023/05/18 04:26:59;;;;;;;7.50;5.10;;;4.10;99.90;;;;;;5054197;28;20260;-37
2023/05/18 04:29:26;;;;;;;7.00;4.77;;;4.20;99.90;;;;;;5054736;28;20173;-40
2023/05/18 04:31:59;;;;;;;7.53;5.10;;;4.10;99.90;;;;;;5054779;28;20170;-37
2023/05/18 04:34:30;;;;;;;7.93;5.33;;;4.20;99.90;;;;;;5037831;28;20189;-36
2023/05/18 04:36:59;;;;;;;7.90;5.43;;;4.20;99.90;;;;;;5037279;28;20178;-38
2023/05/18 04:39:26;;;;;;;7.27;5.77;;;4.20;99.90;;;;;;5054800;28;20252;-36
2023/05/18 04:41:58;;;;;;;9.27;5.43;;;4.20;99.90;;;;;;5036663;28;20177;-36
2023/05/18 04:44:26;;;;;;;7.10;5.33;;;4.30;99.90;;;;;;5054007;28;20205;-37
2023/05/18 04:46:53;;;;;;;7.27;4.63;;;4.30;99.90;;;;;;5054932;28;20169;-38
2023/05/18 04:49:22;;;;;;;12.10;5.30;;;4.40;99.90;;;;;;5054693;28;20174;-37
2023/05/18 04:51:49;;;;;;;6.73;4.50;;;4.50;99.90;;;;;;5054887;28;20178;-39
2023/05/18 04:54:15;;;;;;;5.70;4.93;;;4.50;99.90;;;;;;5071206;28;20217;-37
2023/05/18 04:56:41;;;;;;;6.70;5.27;;;4.60;99.90;;;;;;5069896;28;20166;-41
2023/05/18 04:59:10;;;;;;;10.73;6.77;;;4.60;99.90;;;;;;5049081;28;20192;-37
2023/05/18 05:01:35;;;;;;;8.17;5.47;;;4.70;99.90;;;;;;5053936;28;20266;-34
2023/05/18 05:04:01;;;;;;;8.57;5.53;;;4.70;99.90;;;;;;5043550;28;20217;-36
2023/05/18 05:06:27;;;;;;;7.03;4.67;;;4.80;99.90;;;;;;5061278;28;20228;-37
2023/05/18 05:08:53;;;;;;;7.77;4.70;;;4.80;99.90;;;;;;5047817;28;20180;-36
2023/05/18 05:11:20;;;;;;;6.83;4.80;;;4.80;99.90;;;;;;5044243;28;20170;-37
2023/05/18 05:13:46;;;;;;;7.20;5.27;;;4.80;99.90;;;;;;5044782;28;20189;-36
2023/05/18 05:16:12;;;;;;;5.73;4.90;;;4.80;99.90;;;;;;5031352;28;20169;-36
2023/05/18 05:18:37;;;;;;;6.43;4.93;;;4.90;99.90;;;;;;5027280;28;20178;-35
2023/05/18 05:21:05;;;;;;;6.63;5.47;;;4.90;99.90;;;;;;5044128;28;20722;-39
2023/05/18 05:23:31;;;;;;;7.10;5.50;;;5.00;99.90;;;;;;5044970;28;20322;-39
2023/05/18 05:25:57;;;;;;;7.73;5.20;;;5.00;99.90;;;;;;5043420;28;20220;-38
2023/05/18 05:28:25;;;;;;;5.77;4.50;;;5.10;99.90;;;;;;5043072;28;20226;-37
2023/05/18 05:30:51;;;;;;;6.77;5.40;;;5.20;99.90;;;;;;5035518;28;20191;-40
2023/05/18 05:33:17;;;;;;;8.60;5.33;;;5.40;99.90;;;;;;5033671;28;20228;-34
2023/05/18 05:35:43;;;;;;;7.10;5.17;;;5.50;99.90;;;;;;5039875;28;20191;-38
2023/05/18 05:38:09;;;;;;;8.33;5.33;;;5.60;99.90;;;;;;5042441;28;20192;-37
2023/05/18 05:40:35;;;;;;;7.37;5.27;;;5.60;99.90;;;;;;5048405;28;20177;-37
2023/05/18 05:43:04;;;;;;;6.37;5.37;;;5.70;99.90;;;;;;5041268;28;20194;-36
2023/05/18 05:45:31;;;;;;;7.23;5.67;;;5.90;99.90;;;;;;5040322;28;20195;-37
2023/05/18 05:48:00;;;;;;;8.87;6.00;;;5.90;99.90;;;;;;5042958;28;20228;-37
2023/05/18 05:50:29;;;;;;;8.50;5.73;;;6.00;99.90;;;;;;5045383;28;20728;-39
2023/05/18 05:53:00;;;;;;;9.13;6.13;;;6.10;99.90;;;;;;5033678;28;20217;-35
2023/05/18 05:55:27;;;;;;;8.47;6.30;;;6.30;99.90;;;;;;5045213;28;20174;-41
2023/05/18 05:57:53;;;;;;;9.37;6.40;;;6.50;99.90;;;;;;5034356;28;20180;-38
2023/05/18 06:00:20;;;;;;;12.53;6.30;;;6.60;99.90;;;;;;5041091;28;20175;-37
2023/05/18 06:02:53;;;;;;;8.53;6.03;;;6.80;99.90;;;;;;5043108;28;20178;-35
2023/05/18 06:05:39;;;;;;;9.03;6.20;;;6.90;99.90;;;;;;5061588;28;20239;-37
2023/05/18 06:08:08;;;;;;;9.77;6.63;;;7.00;99.90;;;;;;5040502;28;20188;-40
2023/05/18 06:10:34;;;;;;;8.13;6.00;;;7.20;99.90;;;;;;5053472;28;20206;-38
2023/05/18 06:13:00;;;;;;;11.20;6.30;;;7.40;99.90;;;;;;5049175;28;20684;-40
2023/05/18 06:15:48;;;;;;;9.53;6.17;;;7.40;99.90;;;;;;5049995;28;20180;-39
2023/05/18 06:18:14;;;;;;;7.93;5.97;;;7.50;99.90;;;;;;5034306;28;20264;-38
2023/05/18 06:20:40;;;;;;;8.23;5.80;;;7.60;99.90;;;;;;5043708;28;20201;-39
2023/05/18 06:23:05;;;;;;;11.07;6.20;;;7.80;99.90;;;;;;5041084;28;20212;-42
2023/05/18 06:25:43;;;;;;;8.53;5.50;;;7.90;99.90;;;;;;5048037;28;20263;-40
2023/05/18 06:28:16;;;;;;;10.17;6.40;;;8.00;99.90;;;;;;5036428;28;20182;-40
2023/05/18 06:30:46;;;;;;;11.33;6.80;;;8.10;99.90;;;;;;5015747;28;20180;-41
2023/05/18 06:33:22;;;;;;;10.13;6.60;;;8.20;99.90;;;;;;5032695;28;20261;-41
2023/05/18 06:35:48;;;;;;;8.60;6.10;;;8.30;99.90;;;;;;5041190;28;20324;-41
2023/05/18 06:38:14;;;;;;;8.90;6.20;;;8.40;99.90;;;;;;5042235;28;20268;-39
2023/05/18 06:40:39;;;;;;;11.03;6.83;;;8.60;99.90;;;;;;5052845;28;20188;-41
2023/05/18 06:43:05;;;;;;;8.23;6.27;;;8.80;99.90;;;;;;5052473;28;20716;-41
2023/05/18 06:45:41;;;;;;;9.17;5.97;;;8.80;99.90;;;;;;5052649;28;20208;-41
2023/05/18 06:48:11;;;;;;;11.97;6.17;;;8.90;99.90;;;;;;5052703;28;20318;-42
2023/05/18 06:50:37;;;;;;;8.77;5.83;;;9.00;99.90;;;;;;5052496;28;20284;-41
2023/05/18 06:53:05;;;;;;;8.53;5.70;;;9.20;99.90;;;;;;5052992;28;20205;-42
2023/05/18 06:55:31;;;;;;;12.40;5.40;;;9.30;99.90;;;;;;5052675;28;20184;-42
2023/05/18 06:57:58;;;;;;;6.50;5.20;;;9.50;99.90;;;;;;5045653;28;20192;-41
2023/05/18 07:00:24;;;;;;;8.27;5.20;;;9.70;99.90;;;;;;5042542;28;20177;-41
2023/05/18 07:02:50;;;;;;;8.87;5.37;;;9.90;99.90;;;;;;5027424;28;20200;-42
2023/05/18 07:05:17;;;;;;;7.93;5.67;;;10.10;99.90;;;;;;5047290;28;20247;-42
2023/05/18 07:07:43;;;;;;;7.87;5.10;;;10.20;99.90;;;;;;5039887;28;20181;-41
2023/05/18 07:10:09;;;;;;;8.37;5.53;;;10.30;99.90;;;;;;5041967;28;20240;-41
2023/05/18 07:12:35;;;;;;;9.87;4.93;;;10.30;99.90;;;;;;5047074;28;20174;-41
2023/05/18 07:15:03;;;;;;;8.40;5.40;;;10.30;99.90;;;;;;5021862;28;20192;-42
2023/05/18 07:17:29;;;;;;;8.37;4.80;;;10.40;99.90;;;;;;5038053;28;20213;-41
2023/05/18 07:19:55;;;;;;;8.33;5.43;;;10.60;99.90;;;;;;5045848;28;20209;-42
2023/05/18 07:22:21;;;;;;;7.97;4.47;;;10.80;99.90;;;;;;5044411;28;20209;-42
2023/05/18 07:24:47;;;;;;;7.97;4.47;;;11.00;99.90;;;;;;5044245;28;20204;-41
2023/05/18 07:27:12;;;;;;;9.07;4.83;;;11.20;99.90;;;;;;5045921;28;20197;-42
2023/05/18 07:29:38;;;;;;;9.10;4.80;;;11.40;99.90;;;;;;5041859;28;20195;-41
2023/05/18 07:32:04;;;;;;;10.40;4.90;;;11.60;99.90;;;;;;5050099;28;20181;-42
2023/05/18 07:34:30;;;;;;;8.20;4.27;;;11.70;99.90;;;;;;5033599;28;20265;-42
2023/05/18 07:36:57;;;;;;;7.47;4.60;;;11.80;99.90;;;;;;5040854;28;20282;-42
2023/05/18 07:39:27;;;;;;;8.33;4.73;;;11.90;99.90;;;;;;5042934;28;20960;-41
2023/05/18 07:41:54;;;;;;;7.93;4.70;;;11.90;99.90;;;;;;5044877;28;20209;-41
2023/05/18 07:44:20;;;;;;;6.93;4.00;;;12.00;99.90;;;;;;5041590;28;20255;-42
2023/05/18 07:46:46;;;;;;;8.70;4.40;;;12.20;99.90;;;;;;5043593;28;20554;-40
2023/05/18 07:49:12;;;;;;;14.70;4.40;;;12.40;99.90;;;;;;5063400;28;20181;-42
2023/05/18 07:51:38;;;;;;;6.33;3.77;;;12.60;99.90;;;;;;5033599;28;20195;-41
2023/05/18 07:54:04;;;;;;;7.63;3.83;;;12.70;99.90;;;;;;5063202;28;20254;-39
2023/05/18 07:56:30;;;;;;;7.20;3.83;;;12.90;99.90;;;;;;5061835;28;20241;-42
2023/05/18 07:58:56;;;;;;;8.13;3.87;;;13.20;99.90;;;;;;5062873;28;20178;-42
2023/05/18 08:01:26;;;;;;;7.60;3.77;;;13.40;99.90;;;;;;5061222;28;20248;-42
2023/05/18 08:03:53;;;;;;;7.10;3.63;;;13.60;99.90;;;;;;5066333;28;20322;-42
2023/05/18 08:06:20;;;;;;;6.73;3.40;;;13.80;99.90;;;;;;5059617;28;20220;-41
2023/05/18 08:08:46;;;;;;;6.33;3.60;;;14.00;99.90;;;;;;5061392;28;20209;-41
2023/05/18 08:11:12;;;;;;;5.33;3.53;;;14.10;99.90;;;;;;5041329;28;20633;-41
2023/05/18 08:13:38;;;;;;;6.83;3.77;;;14.30;99.90;;;;;;5046156;28;20215;-41
2023/05/18 08:16:05;;;;;;;6.73;3.70;;;14.40;99.90;;;;;;5038396;28;20173;-39
2023/05/18 08:18:31;;;;;;;6.57;3.60;;;14.50;99.90;;;;;;5051953;28;20672;-40
2023/05/18 08:20:57;;;;;;;5.43;3.50;;;14.70;99.90;;;;;;5067794;28;20207;-42
2023/05/18 08:23:23;;;;;;;7.17;3.73;;;14.90;99.90;;;;;;5051282;28;20251;-41
2023/05/18 08:25:51;;;;;;;7.30;4.40;;;15.00;99.90;;;;;;5031687;28;20229;-41
2023/05/18 08:28:19;;;;;;;9.97;3.67;;;15.10;99.90;;;;;;5056525;28;20169;-42
2023/05/18 08:30:45;;;;;;;5.70;3.47;;;15.30;99.90;;;;;;5028415;28;20208;-41
2023/05/18 08:33:11;;;;;;;5.00;3.13;;;15.40;99.90;;;;;;5060883;28;20193;-42
2023/05/18 08:35:38;;;;;;;6.97;3.73;;;15.60;99.90;;;;;;5047035;28;20188;-41
2023/05/18 08:38:06;;;;;;;8.23;3.90;;;15.80;99.90;;;;;;5063051;28;20231;-42
2023/05/18 08:40:41;;;;;;;5.83;3.40;;;15.80;99.90;;;;;;5041207;28;20194;-42
2023/05/18 08:43:32;;;;;;;7.90;4.10;;;15.70;99.90;;;;;;5050421;28;20208;-39
2023/05/18 08:46:12;;;;;;;9.03;3.80;;;15.90;99.90;;;;;;5032503;28;20249;-41
2023/05/18 08:48:40;;;;;;;8.90;4.20;;;16.00;99.90;;;;;;5040941;28;20185;-41
2023/05/18 08:51:09;;;;;;;8.63;3.90;;;15.80;99.90;;;;;;5055334;28;20246;-42
2023/05/18 08:53:37;;;;;;;7.07;3.80;;;15.90;99.90;;;;;;5054014;28;20193;-42
2023/05/18 08:56:04;;;;;;;8.23;3.70;;;16.10;99.90;;;;;;5049551;28;20184;-42
2023/05/18 08:58:35;;;;;;;9.23;3.50;;;16.10;99.90;;;;;;5072690;28;20180;-41
2023/05/18 09:01:02;;;;;;;6.93;3.93;;;16.20;99.90;;;;;;5054314;28;20762;-42
2023/05/18 09:03:29;;;;;;;9.30;3.70;;;16.30;99.90;;;;;;5072928;28;20216;-41
2023/05/18 09:05:56;;;;;;;5.80;3.87;;;16.50;99.90;;;;;;5073054;28;20284;-42
2023/05/18 09:08:23;;;;;;;6.90;3.70;;;16.70;99.90;;;;;;5045903;28;20173;-39
2023/05/18 09:10:56;;;;;;;8.30;4.97;;;16.90;99.90;;;;;;5053134;28;20173;-42
2023/05/18 09:13:23;;;;;;;12.53;5.10;;;16.90;99.90;;;;;;5065985;28;20190;-41
2023/05/18 09:15:50;;;;;;;7.22;4.05;;;16.70;99.90;;;;;;5071367;28;20285;-41
2023/05/18 09:18:16;;;;;;;6.88;4.07;;;16.90;99.90;;;;;;5030329;28;20187;-38
2023/05/18 09:20:41;;;;;;;7.47;3.83;;;17.10;99.90;;;;;;5061509;28;20187;-41
2023/05/18 09:23:07;;;;;;;8.48;3.88;;;17.20;99.90;;;;;;5043117;28;20668;-40
2023/05/18 09:25:36;;;;;;;6.35;3.72;;;17.40;99.90;;;;;;5043868;28;20213;-41
2023/05/18 09:28:03;;;;;;;7.32;3.92;;;17.50;99.90;;;;;;5048075;28;20177;-41
2023/05/18 09:30:29;;;;;;;9.93;4.88;;;17.40;99.90;;;;;;5053362;28;20194;-41
2023/05/18 09:32:55;;;;;;;6.72;3.85;;;17.30;99.90;;;;;;5033403;28;20211;-41
2023/05/18 09:35:23;;;;;;;6.63;4.10;;;17.30;99.90;;;;;;5032771;28;20186;-41
2023/05/18 09:37:51;;;;;;;8.27;3.72;;;17.60;99.90;;;;;;5045741;28;20209;-40
2023/05/18 09:40:19;;;;;;;7.05;3.88;;;17.80;99.90;;;;;;5070235;28;20169;-40
2023/05/18 09:42:45;;;;;;;8.50;4.53;;;17.90;99.90;;;;;;5042451;28;20182;-41
2023/05/18 09:45:22;;;;;;;9.88;4.30;;;18.00;99.90;;;;;;5045448;28;20250;-41
2023/05/18 09:47:50;;;;;;;10.80;4.97;;;18.10;99.90;;;;;;5021920;28;20227;-41
2023/05/18 09:50:19;;;;;;;7.15;4.63;;;18.00;99.90;;;;;;5047092;28;20240;-39
2023/05/18 09:52:48;;;;;;;8.38;4.20;;;17.90;99.90;;;;;;5049503;28;20264;-40
2023/05/18 09:55:19;;;;;;;5.35;3.70;;;18.00;99.90;;;;;;5071614;28;20185;-41
2023/05/18 09:57:47;;;;;;;7.80;4.18;;;18.10;99.90;;;;;;5056529;28;20197;-41
2023/05/18 10:00:15;;;;;;;9.15;3.72;;;18.10;99.90;;;;;;5062911;28;20236;-41
2023/05/18 10:02:47;;;;;;;9.25;3.83;;;18.10;99.90;;;;;;5052824;28;20178;-39
2023/05/18 10:05:36;;;;;;;9.65;3.92;;;18.00;99.90;;;;;;5058703;28;20206;-41
2023/05/18 10:08:06;;;;;;;8.00;4.40;;;17.80;99.90;;;;;;5061632;28;20170;-39
2023/05/18 10:10:38;;;;;;;9.48;3.92;;;17.60;99.90;;;;;;5057606;28;20203;-40
2023/05/18 10:13:04;;;;;;;6.45;3.70;;;17.40;99.90;;;;;;5044526;28;20209;-38
2023/05/18 10:15:32;;;;;;;6.68;4.03;;;17.70;99.90;;;;;;5045108;28;20275;-40
2023/05/18 10:18:01;;;;;;;6.40;3.63;;;18.00;99.90;;;;;;5025229;28;20208;-41
2023/05/18 10:20:27;;;;;;;7.88;4.07;;;18.10;99.90;;;;;;5042128;28;20189;-40
2023/05/18 10:22:54;;;;;;;8.20;3.72;;;17.90;99.90;;;;;;5036753;28;20193;-41
2023/05/18 10:25:25;;;;;;;6.30;3.67;;;18.00;99.90;;;;;;5039001;28;20220;-41
2023/05/18 10:28:04;;;;;;;10.38;4.07;;;18.20;99.90;;;;;;5060609;28;20170;-40
2023/05/18 10:30:31;;;;;;;7.45;3.92;;;18.50;99.90;;;;;;5040718;28;20636;-41
2023/05/18 10:32:58;;;;;;;6.57;3.95;;;18.50;99.90;;;;;;5033336;28;20196;-41
2023/05/18 10:35:33;;;;;;;10.20;3.67;;;18.50;99.90;;;;;;5037186;28;20189;-41
2023/05/18 10:38:02;;;;;;;7.85;3.97;;;18.20;99.90;;;;;;5064808;28;20206;-40
2023/05/18 10:40:31;;;;;;;11.70;3.63;;;18.10;99.90;;;;;;5042919;28;20177;-41
2023/05/18 10:43:00;;;;;;;8.18;3.70;;;17.90;99.90;;;;;;5052899;28;20217;-41
2023/05/18 10:45:27;;;;;;;8.30;3.50;;;18.10;99.90;;;;;;5052457;28;20216;-41
2023/05/18 10:47:56;;;;;;;8.02;3.28;;;18.20;99.90;;;;;;5037752;28;20542;-41
2023/05/18 10:50:30;;;;;;;6.63;3.15;;;18.20;99.90;;;;;;5050310;28;20204;-40
2023/05/18 10:52:58;;;;;;;8.30;3.70;;;18.40;99.90;;;;;;5070157;28;20703;-39
2023/05/18 10:55:26;;;;;;;6.97;2.95;;;18.50;99.90;;;;;;5050361;28;20192;-40
2023/05/18 10:57:57;;;;;;;7.78;2.95;;;18.70;99.90;;;;;;5055681;28;20184;-42
2023/05/18 11:00:26;;;;;;;5.53;2.95;;;19.00;99.90;;;;;;5043145;28;20182;-40
2023/05/18 11:02:54;;;;;;;6.07;3.15;;;19.10;99.90;;;;;;5046100;28;20186;-42
2023/05/18 11:05:25;;;;;;;5.47;3.25;;;19.40;99.90;;;;;;5035726;28;20209;-42
2023/05/18 11:08:02;;;;;;;5.00;2.72;;;19.50;99.90;;;;;;5054053;28;20268;-42
2023/05/18 11:10:42;;;;;;;5.38;3.15;;;19.50;99.90;;;;;;5042268;28;20635;-40
2023/05/18 11:13:11;;;;;;;4.05;2.72;;;19.60;99.90;;;;;;5044342;28;20200;-41
2023/05/18 11:15:53;;;;;;;4.45;2.75;;;19.70;99.90;;;;;;5034633;28;20682;-41
2023/05/18 11:18:18;;;;;;;5.70;3.13;;;19.80;99.90;;;;;;5066485;28;20185;-39
2023/05/18 11:20:45;;;;;;;7.10;3.03;;;19.90;99.90;;;;;;5040097;28;20185;-41
2023/05/18 11:23:15;;;;;;;4.45;2.67;;;20.10;99.90;;;;;;5035315;28;20241;-42
2023/05/18 11:25:44;;;;;;;6.05;2.90;;;20.10;99.90;;;;;;5051958;28;20216;-41
2023/05/18 11:28:12;;;;;;;6.22;2.65;;;20.40;99.90;;;;;;5045406;28;20173;-42
2023/05/18 11:30:43;;;;;;;8.50;3.08;;;20.50;99.90;;;;;;5046066;28;20177;-41
2023/05/18 11:33:29;;;;;;;5.07;3.33;;;20.20;99.90;;;;;;5063895;28;20192;-40
2023/05/18 11:36:06;;;;;;;7.38;3.00;;;20.10;99.90;;;;;;5035329;28;20213;-41
2023/05/18 11:39:05;;;;;;;8.25;3.17;;;20.40;99.90;;;;;;5032186;28;20223;-41
2023/05/18 11:41:33;;;;;;;6.00;3.00;;;20.30;99.90;;;;;;5002829;28;20262;-42
2023/05/18 11:44:14;;;;;;;4.78;2.53;;;20.40;99.90;;;;;;5060540;28;20219;-42
2023/05/18 11:46:57;;;;;;;5.07;3.00;;;20.30;99.90;;;;;;5042362;28;20209;-41
2023/05/18 11:49:28;;;;;;;6.28;2.80;;;20.00;99.90;;;;;;5059689;28;20186;-41
2023/05/18 11:52:13;;;;;;;5.80;2.92;;;19.90;99.90;;;;;;5042586;28;20189;-42
2023/05/18 11:54:57;;;;;;;7.72;3.15;;;20.00;99.90;;;;;;5062761;28;20208;-38
2023/05/18 11:57:40;;;;;;;5.72;3.00;;;20.30;99.90;;;;;;5041403;28;20185;-41
2023/05/18 12:00:10;;;;;;;4.63;2.78;;;20.60;99.90;;;;;;5037820;28;20178;-41
2023/05/18 12:02:44;;;;;;;8.20;2.90;;;20.90;99.90;;;;;;5042044;28;20181;-41
2023/05/18 12:05:11;;;;;;;7.38;2.83;;;20.80;99.90;;;;;;5052361;28;20217;-41
2023/05/18 12:07:38;;;;;;;5.90;2.85;;;20.50;99.90;;;;;;5058693;28;20190;-41
2023/05/18 12:10:08;;;;;;;6.20;2.70;;;20.50;99.90;;;;;;5064657;28;20201;-41
2023/05/18 12:12:34;;;;;;;4.28;2.47;;;20.60;99.90;;;;;;5060204;28;20177;-41
2023/05/18 12:15:04;;;;;;;6.22;2.90;;;20.60;99.90;;;;;;5064906;28;20193;-42
2023/05/18 12:17:40;;;;;;;5.80;2.92;;;20.60;99.90;;;;;;5027968;28;20188;-42
2023/05/18 12:20:11;;;;;;;6.72;2.60;;;20.50;99.90;;;;;;5040704;28;20227;-42
2023/05/18 12:22:45;;;;;;;6.70;2.88;;;20.40;99.90;;;;;;5063409;28;20181;-42
2023/05/18 12:25:11;;;;;;;5.68;3.00;;;20.20;99.90;;;;;;5039874;28;20196;-40
2023/05/18 12:27:42;;;;;;;5.22;2.83;;;19.80;99.90;;;;;;5048864;28;20173;-41
2023/05/18 12:30:14;;;;;;;4.80;2.63;;;19.60;99.90;;;;;;5045050;28;20216;-41
2023/05/18 12:32:56;;;;;;;7.00;3.08;;;19.60;99.90;;;;;;5058703;28;20180;-41
2023/05/18 12:35:26;;;;;;;7.07;2.85;;;19.50;99.90;;;;;;5063049;28;20185;-41
2023/05/18 12:37:58;;;;;;;7.00;2.95;;;19.40;99.90;;;;;;5036585;28;20174;-42
2023/05/18 12:40:25;;;;;;;7.43;3.10;;;19.40;99.90;;;;;;5029018;28;20188;-41
2023/05/18 12:42:54;;;;;;;6.45;2.97;;;19.40;99.90;;;;;;5039748;28;20192;-41
2023/05/18 12:45:24;;;;;;;5.70;2.70;;;19.50;99.90;;;;;;5056880;28;20236;-41
2023/05/18 12:47:53;;;;;;;6.95;3.33;;;19.60;99.90;;;;;;5064299;28;20178;-41
2023/05/18 12:50:19;;;;;;;5.75;2.47;;;19.50;99.90;;;;;;5034897;28;20390;-41
2023/05/18 12:52:47;;;;;;;5.13;2.35;;;19.40;99.90;;;;;;5071017;28;20185;-41
2023/05/18 12:55:20;;;;;;;4.85;2.72;;;19.40;99.90;;;;;;5037080;28;20254;-41
2023/05/18 12:57:58;;;;;;;4.90;2.83;;;19.20;99.90;;;;;;5028101;28;20184;-41
2023/05/18 13:00:24;;;;;;;6.47;2.58;;;19.00;99.90;;;;;;5043299;28;20174;-41